Time;durP1;ratioP1;P1;durP2;ratioP2;P2;SDS_P1;SDS_P2;PMS_P1;PMS_P2;Temp;Humidity;BMP_temperature;BMP_pressure;BME280_temperature;BME280_humidity;BME280_pressure;Samples;Min_cycle;Max_cycle;Signal;HPM_P1;HPM_P2
2022/09/14 00:01:51;;;;;;;5.28;2.03;;;14.50;99.90;;;;;;5079731;28;20080;-74
2022/09/14 00:04:19;;;;;;;4.13;1.97;;;14.50;99.90;;;;;;5080105;28;20032;-74
2022/09/14 00:06:46;;;;;;;8.80;2.45;;;14.50;99.90;;;;;;5075080;28;20277;-74
2022/09/14 00:09:16;;;;;;;9.82;2.10;;;14.50;99.90;;;;;;5083608;28;20044;-74
2022/09/14 00:11:41;;;;;;;7.47;2.20;;;14.40;99.90;;;;;;5075235;28;20035;-74
2022/09/14 00:14:07;;;;;;;6.40;2.15;;;14.40;99.90;;;;;;5069935;28;20321;-74
2022/09/14 00:16:36;;;;;;;4.93;2.20;;;14.40;99.90;;;;;;5045672;28;20034;-74
2022/09/14 00:19:12;;;;;;;3.88;2.08;;;14.40;99.90;;;;;;5080988;28;20045;-74
2022/09/14 00:21:38;;;;;;;9.27;2.35;;;14.40;99.90;;;;;;5049556;28;20100;-74
2022/09/14 00:24:06;;;;;;;8.05;1.90;;;14.50;99.90;;;;;;5055119;28;20060;-74
2022/09/14 00:26:32;;;;;;;7.18;2.00;;;14.50;99.90;;;;;;5074728;28;20038;-74
2022/09/14 00:29:03;;;;;;;4.00;1.80;;;14.40;99.90;;;;;;5063659;28;20035;-74
2022/09/14 00:31:30;;;;;;;3.97;2.00;;;14.50;99.90;;;;;;5067958;28;20044;-74
2022/09/14 00:33:55;;;;;;;7.43;2.45;;;14.60;99.90;;;;;;5076698;28;20084;-74
2022/09/14 00:36:28;;;;;;;4.30;2.30;;;14.50;99.90;;;;;;5043136;28;20490;-74
2022/09/14 00:38:59;;;;;;;5.53;2.08;;;14.50;99.90;;;;;;5066822;28;20121;-74
2022/09/14 00:41:28;;;;;;;7.05;1.92;;;14.60;99.90;;;;;;5061518;28;20039;-74
2022/09/14 00:43:56;;;;;;;5.25;1.85;;;14.50;99.90;;;;;;5066477;28;20129;-74
2022/09/14 00:46:22;;;;;;;6.15;2.40;;;14.60;99.90;;;;;;5066252;28;20117;-74
2022/09/14 00:48:48;;;;;;;;;;;14.50;99.90;;;;;;5055232;28;20479;-74
2022/09/14 00:51:17;;;;;;;4.85;2.00;;;14.50;99.90;;;;;;5067260;28;19941;-74
2022/09/14 00:53:43;;;;;;;7.30;2.05;;;14.50;99.90;;;;;;5077137;28;20113;-74
2022/09/14 00:56:09;;;;;;;4.70;2.50;;;14.50;99.90;;;;;;5070241;28;20122;-74
2022/09/14 00:58:35;;;;;;;9.15;2.60;;;14.50;99.90;;;;;;5076154;28;20064;-74
2022/09/14 01:01:01;;;;;;;5.75;2.47;;;14.40;99.90;;;;;;5076225;28;20385;-74
2022/09/14 01:03:27;;;;;;;8.85;2.60;;;14.30;99.90;;;;;;5074168;28;20045;-74
2022/09/14 01:06:17;;;;;;;6.35;2.40;;;14.30;99.90;;;;;;5048655;28;20044;-74
2022/09/14 01:08:58;;;;;;;4.20;2.50;;;14.20;99.90;;;;;;5060741;28;20485;-74
2022/09/14 01:11:35;;;;;;;6.07;2.50;;;14.20;99.90;;;;;;5066745;28;20037;-74
2022/09/14 01:14:07;;;;;;;5.30;2.55;;;14.10;99.90;;;;;;5058782;28;20031;-74
2022/09/14 01:16:46;;;;;;;4.95;2.83;;;14.00;99.90;;;;;;5066565;28;20070;-75
2022/09/14 01:19:33;;;;;;;8.10;3.20;;;13.90;99.90;;;;;;5069101;28;20104;-75
2022/09/14 01:22:09;;;;;;;7.93;2.75;;;13.90;99.90;;;;;;5071463;28;20417;-75
2022/09/14 01:24:47;;;;;;;4.57;2.78;;;13.90;99.90;;;;;;5059248;28;20773;-75
2022/09/14 01:27:22;;;;;;;3.75;2.55;;;13.80;99.90;;;;;;5063890;28;20547;-75
2022/09/14 01:30:00;;;;;;;6.88;3.10;;;13.80;99.90;;;;;;5068481;28;20125;-75
2022/09/14 01:32:31;;;;;;;11.02;3.13;;;13.70;99.90;;;;;;5068945;28;20034;-75
2022/09/14 01:35:08;;;;;;;5.80;3.25;;;13.70;99.90;;;;;;5079302;28;20111;-75
2022/09/14 01:38:02;;;;;;;5.70;3.20;;;13.70;99.90;;;;;;5059585;28;20989;-75
2022/09/14 01:40:45;;;;;;;4.35;2.92;;;13.70;99.90;;;;;;5053680;28;20034;-75
2022/09/14 01:43:35;;;;;;;7.57;3.33;;;13.60;99.90;;;;;;5073303;28;20155;-75
2022/09/14 01:46:24;;;;;;;5.40;2.78;;;13.60;99.90;;;;;;5070611;28;20488;-75
2022/09/14 01:48:56;;;;;;;4.47;3.03;;;13.60;99.90;;;;;;5064046;28;20113;-74
2022/09/14 01:51:31;;;;;;;7.68;3.45;;;13.60;99.90;;;;;;5062470;28;20049;-74
2022/09/14 01:54:21;;;;;;;4.93;2.97;;;13.70;99.90;;;;;;5077271;28;20111;-74
2022/09/14 01:57:05;;;;;;;6.20;2.70;;;13.60;99.90;;;;;;5074807;28;20048;-75
2022/09/14 01:59:36;;;;;;;7.22;3.25;;;13.70;99.90;;;;;;5079657;28;20109;-74
2022/09/14 02:02:10;;;;;;;5.72;2.97;;;13.70;99.90;;;;;;5057355;28;20505;-74
2022/09/14 02:04:49;;;;;;;7.43;2.92;;;13.80;99.90;;;;;;5067298;28;20034;-74
2022/09/14 02:07:16;;;;;;;7.63;3.38;;;13.80;99.90;;;;;;5053343;28;20491;-74
2022/09/14 02:09:42;;;;;;;6.50;3.13;;;13.80;99.90;;;;;;5055183;28;20034;-75
2022/09/14 02:12:08;;;;;;;6.25;3.22;;;13.80;99.90;;;;;;5090420;28;20032;-75
2022/09/14 02:14:34;;;;;;;4.75;3.17;;;13.80;99.90;;;;;;5072889;28;20057;-75
2022/09/14 02:17:00;;;;;;;5.88;3.15;;;13.80;99.90;;;;;;5065177;28;20066;-75
2022/09/14 02:19:31;;;;;;;5.90;3.08;;;13.90;99.90;;;;;;5064857;28;20113;-75
2022/09/14 02:21:57;;;;;;;6.15;2.90;;;13.90;99.90;;;;;;5046832;28;20399;-75
2022/09/14 02:24:23;;;;;;;6.05;3.40;;;13.90;99.90;;;;;;5037779;28;20047;-75
2022/09/14 02:26:50;;;;;;;6.07;3.63;;;13.90;99.90;;;;;;5077791;28;20030;-75
2022/09/14 02:29:16;;;;;;;6.57;3.33;;;13.90;99.90;;;;;;5077172;28;20094;-75
2022/09/14 02:32:04;;;;;;;6.35;3.53;;;13.80;99.90;;;;;;5053465;28;20073;-75
2022/09/14 02:34:37;;;;;;;;;;;13.80;99.90;;;;;;5076107;28;20045;-75
2022/09/14 02:37:28;;;;;;;5.60;3.35;;;13.80;99.90;;;;;;5080060;28;19972;-75
2022/09/14 02:40:16;;;;;;;11.00;3.35;;;13.80;99.90;;;;;;5072341;28;20472;-75
2022/09/14 02:42:48;;;;;;;5.80;3.20;;;13.80;99.90;;;;;;5057622;28;20158;-75
2022/09/14 02:45:21;;;;;;;6.15;3.22;;;13.80;99.90;;;;;;5059222;28;20453;-75
2022/09/14 02:47:50;;;;;;;6.43;3.40;;;13.80;99.90;;;;;;5070937;28;20042;-75
2022/09/14 02:50:55;;;;;;;5.43;3.65;;;13.80;99.90;;;;;;5069308;28;20475;-75
2022/09/14 02:53:46;;;;;;;6.80;3.15;;;13.80;99.90;;;;;;5069460;28;20049;-75
2022/09/14 02:56:13;;;;;;;6.97;3.42;;;13.80;99.90;;;;;;5071874;28;20525;-75
2022/09/14 02:58:44;;;;;;;8.73;3.80;;;13.80;99.90;;;;;;5051539;28;20061;-75
2022/09/14 03:01:12;;;;;;;4.45;3.28;;;13.80;99.90;;;;;;5076607;28;20046;-75
2022/09/14 03:03:38;;;;;;;10.00;3.35;;;13.80;99.90;;;;;;5066951;28;20042;-75
2022/09/14 03:06:05;;;;;;;4.13;3.22;;;13.90;99.90;;;;;;5083802;28;20107;-75
2022/09/14 03:08:31;;;;;;;5.88;3.20;;;13.80;99.90;;;;;;5047834;28;20413;-75
2022/09/14 03:10:57;;;;;;;;;;;13.80;99.90;;;;;;5075760;28;20042;-75
2022/09/14 03:13:23;;;;;;;5.45;2.80;;;13.80;99.90;;;;;;5078357;28;20010;-75
2022/09/14 03:15:49;;;;;;;7.43;3.30;;;13.80;99.90;;;;;;5068107;28;20043;-75
2022/09/14 03:18:15;;;;;;;8.55;3.17;;;13.80;99.90;;;;;;5072182;28;20489;-75
2022/09/14 03:20:41;;;;;;;6.13;3.20;;;13.90;99.90;;;;;;5061850;28;20046;-75
2022/09/14 03:23:08;;;;;;;;;;;13.90;99.90;;;;;;5076970;28;20043;-75
2022/09/14 03:25:38;;;;;;;7.55;3.25;;;13.90;99.90;;;;;;5064538;28;19925;-75
2022/09/14 03:28:05;;;;;;;7.50;3.05;;;13.90;99.90;;;;;;5050401;28;20180;-75
2022/09/14 03:30:31;;;;;;;6.65;3.28;;;13.90;99.90;;;;;;5076163;28;20042;-75
2022/09/14 03:32:58;;;;;;;6.00;3.13;;;14.00;99.90;;;;;;5076269;28;20032;-75
2022/09/14 03:35:24;;;;;;;4.97;3.40;;;14.00;99.90;;;;;;5080886;28;20094;-75
2022/09/14 03:37:50;;;;;;;6.75;3.58;;;14.00;99.90;;;;;;5080215;28;20089;-75
2022/09/14 03:40:16;;;;;;;6.05;3.38;;;13.90;99.90;;;;;;5070703;28;20070;-75
2022/09/14 03:42:48;;;;;;;6.45;3.40;;;14.00;99.90;;;;;;5083023;28;20040;-75
2022/09/14 03:45:15;;;;;;;7.63;3.50;;;14.00;99.90;;;;;;5072289;28;20041;-75
2022/09/14 03:47:45;;;;;;;5.75;3.35;;;14.00;99.90;;;;;;5072779;28;20120;-75
2022/09/14 03:50:13;;;;;;;6.00;3.40;;;14.00;99.90;;;;;;5067903;28;20129;-75
2022/09/14 03:52:39;;;;;;;7.05;3.20;;;14.00;99.90;;;;;;5067778;28;20034;-75
2022/09/14 03:55:06;;;;;;;5.55;3.30;;;14.00;99.90;;;;;;5067730;28;20040;-74
2022/09/14 03:57:32;;;;;;;6.38;3.17;;;14.00;99.90;;;;;;5053948;28;20047;-74
2022/09/14 03:59:58;;;;;;;6.47;3.40;;;14.00;99.90;;;;;;5071810;28;20038;-74
2022/09/14 04:02:24;;;;;;;7.80;3.55;;;14.00;99.90;;;;;;5041375;28;20064;-74
2022/09/14 04:04:51;;;;;;;4.68;3.65;;;14.00;99.90;;;;;;5079389;28;20075;-75
2022/09/14 04:07:17;;;;;;;6.40;3.40;;;14.00;99.90;;;;;;5074910;28;20061;-75
2022/09/14 04:09:42;;;;;;;4.72;3.17;;;14.00;99.90;;;;;;5070514;28;20035;-75
2022/09/14 04:12:09;;;;;;;7.25;3.35;;;14.00;99.90;;;;;;5045381;28;20049;-76
2022/09/14 04:14:38;;;;;;;6.93;3.22;;;14.00;99.90;;;;;;5057280;28;20036;-75
2022/09/14 04:17:04;;;;;;;4.88;3.10;;;14.00;99.90;;;;;;5072379;28;20042;-75
2022/09/14 04:19:32;;;;;;;9.43;3.80;;;13.90;99.90;;;;;;5051740;28;20397;-75
2022/09/14 04:21:57;;;;;;;7.22;3.50;;;13.90;99.90;;;;;;5070457;28;20065;-75
2022/09/14 04:24:23;;;;;;;7.03;3.72;;;13.90;99.90;;;;;;5072622;28;20050;-75
2022/09/14 04:26:49;;;;;;;7.53;3.50;;;13.90;99.90;;;;;;5050541;28;20042;-75
2022/09/14 04:29:14;;;;;;;5.40;3.53;;;13.90;99.90;;;;;;5063369;28;20853;-75
2022/09/14 04:31:40;;;;;;;6.10;3.55;;;14.00;99.90;;;;;;5069279;28;20619;-75
2022/09/14 04:34:06;;;;;;;5.72;3.50;;;14.00;99.90;;;;;;5079437;28;20114;-75
2022/09/14 04:36:32;;;;;;;9.00;3.93;;;14.00;99.90;;;;;;5067639;28;20038;-75
2022/09/14 04:38:59;;;;;;;7.65;3.50;;;14.00;99.90;;;;;;5050501;28;20285;-75
2022/09/14 04:41:26;;;;;;;6.10;3.60;;;14.00;99.90;;;;;;5051596;28;20050;-75
2022/09/14 04:43:53;;;;;;;7.90;3.50;;;14.00;99.90;;;;;;5062439;28;20041;-75
2022/09/14 04:46:25;;;;;;;9.45;4.10;;;14.00;99.90;;;;;;5078395;28;20045;-75
2022/09/14 04:48:51;;;;;;;6.35;3.75;;;14.00;99.90;;;;;;5066864;28;20124;-75
2022/09/14 04:51:19;;;;;;;7.53;3.95;;;13.90;99.90;;;;;;5066592;28;20496;-74
2022/09/14 04:53:49;;;;;;;9.25;3.90;;;14.00;99.90;;;;;;5068305;28;20041;-74
2022/09/14 04:56:15;;;;;;;7.65;3.95;;;14.00;99.90;;;;;;5070843;28;20525;-74
2022/09/14 04:58:48;;;;;;;7.22;3.78;;;13.90;99.90;;;;;;5074333;28;20034;-74
2022/09/14 05:01:17;;;;;;;7.70;4.25;;;13.90;99.90;;;;;;5071304;28;20102;-74
2022/09/14 05:03:43;;;;;;;6.22;3.42;;;14.00;99.90;;;;;;5076709;28;20038;-74
2022/09/14 05:06:23;;;;;;;7.15;3.78;;;14.00;99.90;;;;;;5071479;28;20167;-74
2022/09/14 05:08:50;;;;;;;6.75;3.75;;;14.00;99.90;;;;;;5078459;28;20413;-74
2022/09/14 05:11:18;;;;;;;6.57;3.33;;;14.00;99.90;;;;;;5054539;28;20045;-74
2022/09/14 05:13:44;;;;;;;6.15;3.70;;;14.00;99.90;;;;;;5071262;28;20042;-74
2022/09/14 05:16:23;;;;;;;5.63;3.83;;;14.00;99.90;;;;;;5061439;28;20128;-74
2022/09/14 05:18:50;;;;;;;9.85;3.60;;;14.00;99.90;;;;;;5066326;28;20113;-74
2022/09/14 05:21:18;;;;;;;7.25;3.55;;;14.10;99.90;;;;;;5076854;28;20363;-75
2022/09/14 05:23:44;;;;;;;5.88;3.50;;;14.10;99.90;;;;;;5074544;28;20101;-75
2022/09/14 05:26:10;;;;;;;6.32;3.53;;;14.10;99.90;;;;;;5080739;28;20044;-75
2022/09/14 05:28:37;;;;;;;7.20;4.13;;;14.10;99.90;;;;;;5086579;28;20053;-75
2022/09/14 05:31:06;;;;;;;;;;;14.10;99.90;;;;;;5087024;28;20040;-75
2022/09/14 05:33:33;;;;;;;6.35;3.50;;;14.20;99.90;;;;;;5081772;28;20002;-75
2022/09/14 05:36:00;;;;;;;6.50;3.15;;;14.20;99.90;;;;;;5066285;28;20181;-75
2022/09/14 05:38:28;;;;;;;7.57;3.60;;;14.20;99.90;;;;;;5088659;28;20039;-75
2022/09/14 05:40:54;;;;;;;6.05;3.45;;;14.20;99.90;;;;;;5084357;28;20048;-75
2022/09/14 05:43:21;;;;;;;6.97;3.95;;;14.20;99.90;;;;;;5081489;28;20043;-75
2022/09/14 05:45:48;;;;;;;6.00;3.47;;;14.20;99.90;;;;;;5069078;28;20113;-74
2022/09/14 05:48:13;;;;;;;;;;;14.20;99.90;;;;;;5078567;28;20037;-74
2022/09/14 05:50:39;;;;;;;6.68;3.70;;;14.20;99.90;;;;;;5056869;28;19971;-74
2022/09/14 05:53:04;;;;;;;6.43;3.58;;;14.20;99.90;;;;;;5075861;28;20124;-74
2022/09/14 05:55:30;;;;;;;6.55;3.47;;;14.30;99.90;;;;;;5069112;28;20898;-74
2022/09/14 05:57:56;;;;;;;8.25;3.75;;;14.30;99.90;;;;;;5085839;28;20123;-74
2022/09/14 06:00:21;;;;;;;7.23;3.90;;;14.30;99.90;;;;;;5068730;28;20043;-74
2022/09/14 06:02:52;;;;;;;6.32;3.65;;;14.30;99.90;;;;;;5081001;28;20348;-74
2022/09/14 06:05:18;;;;;;;7.28;3.63;;;14.30;99.90;;;;;;5088414;28;20094;-74
2022/09/14 06:07:44;;;;;;;6.03;3.75;;;14.30;99.90;;;;;;5064142;28;20053;-74
2022/09/14 06:10:10;;;;;;;;;;;14.30;99.90;;;;;;5081108;28;20036;-73
2022/09/14 06:12:37;;;;;;;11.07;3.90;;;14.30;99.90;;;;;;5088628;28;19920;-74
2022/09/14 06:15:03;;;;;;;6.65;3.28;;;14.40;99.90;;;;;;5085330;28;20044;-74
2022/09/14 06:17:30;;;;;;;6.35;3.60;;;14.40;99.90;;;;;;5082582;28;20382;-74
2022/09/14 06:19:55;;;;;;;8.00;3.75;;;14.40;99.90;;;;;;5068417;28;20521;-74
2022/09/14 06:22:21;;;;;;;5.28;3.40;;;14.40;99.90;;;;;;5082787;28;20044;-74
2022/09/14 06:24:47;;;;;;;7.00;3.55;;;14.50;99.90;;;;;;5074694;28;20409;-75
2022/09/14 06:27:12;;;;;;;6.03;3.67;;;14.50;99.90;;;;;;5079860;28;20047;-73
2022/09/14 06:29:38;;;;;;;7.90;3.53;;;14.50;99.90;;;;;;5083802;28;20040;-74
2022/09/14 06:32:04;;;;;;;7.30;3.70;;;14.60;99.90;;;;;;5076822;28;20436;-74
2022/09/14 06:34:29;;;;;;;5.50;3.95;;;14.60;99.90;;;;;;5070046;28;20063;-74
2022/09/14 06:36:56;;;;;;;5.43;3.08;;;14.70;99.90;;;;;;5079295;28;20043;-73
2022/09/14 06:39:21;;;;;;;10.63;3.45;;;14.70;99.90;;;;;;5078056;28;20054;-74
2022/09/14 06:41:47;;;;;;;6.15;4.05;;;14.80;99.90;;;;;;5086886;28;20036;-74
2022/09/14 06:44:13;;;;;;;5.57;3.25;;;14.90;99.90;;;;;;5087513;28;20055;-74
2022/09/14 06:46:38;;;;;;;7.70;3.90;;;15.00;99.90;;;;;;5067518;28;20039;-74
2022/09/14 06:49:11;;;;;;;8.15;3.63;;;15.00;99.90;;;;;;5083927;28;20044;-74
2022/09/14 06:51:42;;;;;;;5.20;3.22;;;15.00;99.90;;;;;;5085427;28;20393;-74
2022/09/14 06:54:10;;;;;;;5.47;3.70;;;15.10;99.90;;;;;;5080531;28;20040;-74
2022/09/14 06:56:41;;;;;;;5.88;3.63;;;15.10;99.90;;;;;;5074859;28;20066;-74
2022/09/14 06:59:09;;;;;;;5.50;3.50;;;15.20;99.90;;;;;;5082547;28;20386;-74
2022/09/14 07:01:35;;;;;;;6.35;2.92;;;15.20;99.90;;;;;;5077665;28;20047;-75
2022/09/14 07:04:02;;;;;;;;;;;15.30;99.90;;;;;;5082019;28;20494;-75
2022/09/14 07:06:30;;;;;;;5.72;3.20;;;15.40;99.90;;;;;;5083927;28;19974;-75
2022/09/14 07:08:56;;;;;;;7.20;3.20;;;15.40;99.90;;;;;;5065143;28;20056;-75
2022/09/14 07:11:26;;;;;;;6.80;3.63;;;15.50;99.90;;;;;;5081922;28;20036;-75
2022/09/14 07:14:00;;;;;;;4.55;3.38;;;15.60;99.90;;;;;;5062949;28;20040;-75
2022/09/14 07:16:28;;;;;;;5.90;3.67;;;15.60;99.90;;;;;;5061125;28;20497;-75
2022/09/14 07:19:00;;;;;;;8.52;2.80;;;15.60;99.90;;;;;;5087224;28;21583;-75
2022/09/14 07:21:27;;;;;;;5.88;3.00;;;15.70;99.90;;;;;;5079748;28;20048;-74
2022/09/14 07:23:54;;;;;;;6.82;2.80;;;15.70;99.90;;;;;;5083280;28;20780;-75
2022/09/14 07:26:29;;;;;;;7.30;3.15;;;15.80;99.90;;;;;;5092004;28;20055;-75
2022/09/14 07:29:03;;;;;;;5.15;3.05;;;15.80;99.90;;;;;;5087202;28;20543;-73
2022/09/14 07:31:38;;;;;;;5.13;2.70;;;15.90;99.90;;;;;;5082010;28;20052;-74
2022/09/14 07:34:05;;;;;;;5.97;2.53;;;16.00;99.90;;;;;;5076005;28;20522;-73
2022/09/14 07:36:32;;;;;;;;;;;16.00;99.90;;;;;;5067969;28;20120;-74
2022/09/14 07:38:57;;;;;;;5.75;2.60;;;16.10;99.90;;;;;;5082027;28;19923;-75
2022/09/14 07:41:26;;;;;;;7.28;2.58;;;16.10;99.90;;;;;;5063678;28;20432;-74
2022/09/14 07:43:59;;;;;;;4.55;2.30;;;16.20;99.90;;;;;;5088566;28;20528;-74
2022/09/14 07:46:29;;;;;;;5.82;2.47;;;16.30;99.90;;;;;;5085645;28;20458;-74
2022/09/14 07:48:57;;;;;;;4.85;2.17;;;16.40;99.90;;;;;;5087998;28;20071;-74
2022/09/14 07:51:23;;;;;;;5.82;2.00;;;16.50;99.90;;;;;;5058378;28;20093;-74
2022/09/14 07:53:49;;;;;;;5.00;1.80;;;16.60;99.90;;;;;;5081476;28;20075;-74
2022/09/14 07:56:16;;;;;;;3.22;1.63;;;16.70;99.90;;;;;;5081997;28;20178;-74
2022/09/14 07:58:42;;;;;;;5.03;1.48;;;16.80;99.90;;;;;;5084316;28;20036;-74
2022/09/14 08:01:13;;;;;;;5.03;1.48;;;16.90;99.90;;;;;;5082072;28;20090;-75
2022/09/14 08:03:42;;;;;;;3.75;1.20;;;17.00;99.90;;;;;;5076296;28;20118;-76
2022/09/14 08:06:28;;;;;;;5.55;1.40;;;17.10;99.90;;;;;;5061992;28;20048;-76
2022/09/14 08:08:55;;;;;;;3.38;1.10;;;17.20;99.90;;;;;;5083749;28;20489;-76
2022/09/14 08:11:26;;;;;;;5.32;1.35;;;17.30;99.90;;;;;;5084778;28;20032;-76
2022/09/14 08:14:01;;;;;;;7.38;1.42;;;17.40;99.90;;;;;;5076085;28;20039;-76
2022/09/14 08:16:29;;;;;;;7.85;1.50;;;17.40;99.90;;;;;;5081326;28;20060;-76
2022/09/14 08:18:57;;;;;;;6.30;1.42;;;17.50;99.90;;;;;;5080886;28;20040;-76
2022/09/14 08:21:24;;;;;;;5.50;1.05;;;17.60;99.90;;;;;;5077953;28;20047;-76
2022/09/14 08:23:49;;;;;;;4.95;1.13;;;17.80;99.90;;;;;;5080875;28;20052;-76
2022/09/14 08:26:18;;;;;;;2.38;0.90;;;18.00;99.90;;;;;;5074547;28;20047;-76
2022/09/14 08:28:45;;;;;;;6.57;1.10;;;18.20;99.90;;;;;;5081514;28;20036;-76
2022/09/14 08:31:14;;;;;;;5.10;0.90;;;18.20;99.90;;;;;;5061347;28;20032;-76
2022/09/14 08:33:46;;;;;;;6.40;1.30;;;18.30;99.90;;;;;;5082090;28;20066;-76
2022/09/14 08:36:14;;;;;;;5.65;1.25;;;18.50;99.90;;;;;;5084193;28;20097;-76
2022/09/14 08:38:40;;;;;;;3.88;1.10;;;19.20;99.90;;;;;;5079889;28;20044;-76
2022/09/14 08:41:18;;;;;;;5.88;1.13;;;19.80;99.90;;;;;;5080383;28;20039;-77
2022/09/14 08:43:44;;;;;;;4.85;1.10;;;20.20;99.90;;;;;;5078822;28;20354;-76
2022/09/14 08:46:35;;;;;;;4.45;0.85;;;20.40;99.90;;;;;;5058866;28;20052;-78
2022/09/14 08:49:08;;;;;;;5.10;0.90;;;20.50;99.90;;;;;;5063413;28;20414;-77
2022/09/14 08:51:34;;;;;;;3.63;1.13;;;20.60;99.90;;;;;;5060927;28;20039;-77
2022/09/14 08:54:00;;;;;;;7.90;0.88;;;20.60;99.90;;;;;;5060154;28;20047;-77
2022/09/14 08:56:32;;;;;;;4.97;0.80;;;21.10;99.90;;;;;;5063046;28;20124;-76
2022/09/14 08:59:16;;;;;;;5.45;0.70;;;21.40;99.90;;;;;;5079227;28;20492;-76
2022/09/14 09:02:10;;;;;;;4.60;0.68;;;21.50;99.90;;;;;;5071960;28;20173;-76
2022/09/14 09:05:17;;;;;;;2.88;0.60;;;21.80;99.90;;;;;;5059714;28;20044;-77
2022/09/14 09:08:11;;;;;;;4.47;0.83;;;22.10;99.90;;;;;;5052251;28;20047;-77
2022/09/14 09:10:39;;;;;;;4.55;0.70;;;23.10;99.90;;;;;;5075584;28;20047;-76
2022/09/14 09:13:08;;;;;;;3.22;0.52;;;23.70;99.90;;;;;;5055558;28;20079;-76
2022/09/14 09:15:40;;;;;;;3.75;0.60;;;24.10;99.90;;;;;;5055999;28;20433;-76
2022/09/14 09:18:15;;;;;;;5.40;0.52;;;23.70;99.60;;;;;;5077878;28;20068;-76
2022/09/14 09:20:55;;;;;;;8.55;0.70;;;23.30;99.80;;;;;;5060098;28;21021;-76
2022/09/14 09:23:23;;;;;;;4.22;0.60;;;22.80;99.90;;;;;;5080543;28;20419;-76
2022/09/14 09:25:49;;;;;;;4.15;0.55;;;22.40;99.90;;;;;;5082658;28;20036;-76
2022/09/14 09:28:15;;;;;;;;;;;22.20;99.90;;;;;;5060760;28;20044;-76
2022/09/14 09:30:41;;;;;;;4.78;0.73;;;22.10;99.90;;;;;;5079551;28;19922;-76
2022/09/14 09:33:14;;;;;;;;;;;22.30;99.90;;;;;;5049738;28;20113;-76
2022/09/14 09:35:40;;;;;;;4.68;0.60;;;22.60;99.90;;;;;;5076600;28;19958;-76
2022/09/14 09:38:13;;;;;;;;;;;23.20;99.90;;;;;;5077425;28;20044;-76
2022/09/14 09:40:43;;;;;;;5.70;0.60;;;23.70;99.40;;;;;;5056255;28;19959;-76
2022/09/14 09:43:13;;;;;;;5.30;0.50;;;24.20;99.00;;;;;;5081135;28;20052;-77
2022/09/14 09:45:50;;;;;;;6.72;0.63;;;24.50;98.00;;;;;;5084304;28;20047;-77
2022/09/14 09:48:18;;;;;;;6.00;0.50;;;24.60;98.00;;;;;;5077070;28;20072;-77
2022/09/14 09:51:33;;;;;;;3.22;0.47;;;24.60;98.00;;;;;;5073710;28;20046;-77
2022/09/14 09:54:22;;;;;;;4.22;0.40;;;24.90;97.70;;;;;;5072646;28;20137;-77
2022/09/14 09:56:55;;;;;;;5.85;0.88;;;25.10;97.00;;;;;;5076267;28;20111;-77
2022/09/14 09:59:25;;;;;;;3.45;0.50;;;24.90;97.30;;;;;;5079104;28;20036;-77
2022/09/14 10:01:53;;;;;;;4.18;0.40;;;24.60;98.10;;;;;;5057717;28;20040;-77
2022/09/14 10:04:23;;;;;;;2.95;0.50;;;24.20;98.70;;;;;;5062399;28;20104;-77
2022/09/14 10:06:52;;;;;;;4.93;0.47;;;23.90;97.70;;;;;;5074949;28;20366;-76
2022/09/14 10:09:20;;;;;;;3.25;0.55;;;23.80;98.60;;;;;;5077412;28;20048;-77
2022/09/14 10:11:58;;;;;;;2.47;0.60;;;23.50;98.40;;;;;;5081442;28;20040;-76
2022/09/14 10:14:33;;;;;;;4.20;0.50;;;23.40;98.80;;;;;;5080779;28;20071;-76
2022/09/14 10:17:15;;;;;;;5.20;0.65;;;23.20;99.10;;;;;;5056827;28;20471;-76
2022/09/14 10:19:51;;;;;;;3.58;0.40;;;23.20;99.00;;;;;;5082021;28;20047;-76
2022/09/14 10:22:27;;;;;;;3.95;0.57;;;23.10;99.10;;;;;;5075567;28;20057;-76
2022/09/14 10:24:56;;;;;;;4.22;0.90;;;23.10;99.30;;;;;;5086970;28;20121;-76
2022/09/14 10:27:47;;;;;;;4.80;0.68;;;22.90;99.40;;;;;;5080808;28;20405;-76
2022/09/14 10:30:19;;;;;;;5.28;0.68;;;23.00;99.40;;;;;;5074481;28;20043;-75
2022/09/14 10:33:00;;;;;;;4.85;0.60;;;22.90;99.70;;;;;;5060333;28;20066;-76
2022/09/14 10:36:01;;;;;;;6.53;0.80;;;22.80;99.20;;;;;;5080380;28;20085;-82
2022/09/14 10:38:40;;;;;;;5.63;0.75;;;22.70;99.80;;;;;;5078224;28;20065;-82
2022/09/14 10:41:23;;;;;;;8.57;0.80;;;22.80;99.90;;;;;;5078630;28;20044;-83
2022/09/14 10:44:18;;;;;;;5.88;0.90;;;23.10;99.90;;;;;;5085542;28;20071;-83
2022/09/14 10:47:14;;;;;;;4.60;0.90;;;23.20;99.60;;;;;;5080537;28;20504;-82
2022/09/14 10:49:51;;;;;;;5.88;0.75;;;23.00;99.00;;;;;;5079692;28;20045;-82
2022/09/14 10:52:25;;;;;;;5.35;0.90;;;23.20;99.50;;;;;;5080670;28;20050;-82
2022/09/14 10:55:00;;;;;;;6.07;1.00;;;23.30;99.20;;;;;;5060083;28;20036;-81
2022/09/14 10:57:49;;;;;;;4.80;0.70;;;23.20;98.60;;;;;;5084089;28;20094;-82
2022/09/14 11:00:21;;;;;;;5.18;0.95;;;23.20;98.50;;;;;;5061541;28;20040;-80
2022/09/14 11:03:02;;;;;;;5.18;0.80;;;23.20;99.10;;;;;;5086409;28;20032;-82
2022/09/14 11:06:10;;;;;;;4.63;0.98;;;23.40;98.70;;;;;;5083903;28;20036;-83
2022/09/14 11:08:51;;;;;;;4.03;0.55;;;23.40;99.50;;;;;;5073772;28;20119;-84
2022/09/14 11:11:52;;;;;;;4.07;0.50;;;23.40;99.00;;;;;;5073795;28;20503;-82
2022/09/14 11:14:47;;;;;;;6.15;0.60;;;23.80;98.40;;;;;;5076634;28;20899;-82
2022/09/14 11:17:54;;;;;;;3.85;0.50;;;24.50;98.30;;;;;;5075622;28;20044;-81
2022/09/14 11:20:25;;;;;;;4.30;0.60;;;25.20;96.80;;;;;;5073138;28;20500;-83
2022/09/14 11:23:01;;;;;;;3.15;0.60;;;25.70;96.10;;;;;;5047396;28;20060;-82
2022/09/14 11:25:41;;;;;;;3.10;0.40;;;26.10;95.90;;;;;;5069702;28;20046;-82
2022/09/14 11:28:26;;;;;;;4.15;0.70;;;26.30;95.90;;;;;;5068317;28;20046;-80
2022/09/14 11:31:11;;;;;;;3.03;0.40;;;26.30;95.50;;;;;;5049484;28;20044;-81
2022/09/14 11:33:46;;;;;;;3.65;0.45;;;26.40;95.30;;;;;;5073374;28;20030;-80
2022/09/14 11:36:23;;;;;;;5.47;0.70;;;26.50;95.20;;;;;;5059658;28;20099;-80
2022/09/14 11:38:55;;;;;;;2.97;0.70;;;26.90;96.10;;;;;;5058219;28;20056;-81
2022/09/14 11:41:25;;;;;;;2.92;0.50;;;27.20;95.30;;;;;;5075035;28;20087;-79
2022/09/14 11:44:17;;;;;;;2.50;0.57;;;27.50;95.00;;;;;;5072338;28;20117;-79
2022/09/14 11:47:02;;;;;;;5.28;1.00;;;27.80;94.20;;;;;;5069475;28;20138;-80
2022/09/14 11:49:54;;;;;;;6.03;0.80;;;28.30;93.90;;;;;;5074934;28;20496;-80
2022/09/14 11:52:23;;;;;;;3.35;0.50;;;28.60;93.40;;;;;;5066960;28;20075;-80
2022/09/14 11:54:50;;;;;;;4.47;0.60;;;28.70;93.30;;;;;;5074928;28;20049;-81
2022/09/14 11:57:25;;;;;;;4.50;0.80;;;28.70;93.50;;;;;;5039277;28;20038;-80
2022/09/14 12:00:06;;;;;;;3.78;0.63;;;28.40;92.90;;;;;;5062460;28;20061;-80
2022/09/14 12:02:31;;;;;;;1.55;0.32;;;28.10;93.00;;;;;;5060437;28;20039;-80
2022/09/14 12:05:07;;;;;;;1.92;0.40;;;27.80;93.30;;;;;;5072078;28;20031;-80
2022/09/14 12:07:54;;;;;;;4.28;0.50;;;27.80;92.80;;;;;;5045101;28;20041;-80
2022/09/14 12:10:20;;;;;;;4.07;0.60;;;27.90;92.70;;;;;;5045804;28;20460;-80
2022/09/14 12:13:05;;;;;;;3.95;0.80;;;27.80;92.40;;;;;;5081609;28;20505;-80
2022/09/14 12:15:39;;;;;;;3.53;0.65;;;27.60;92.40;;;;;;5063518;28;20042;-80
2022/09/14 12:18:05;;;;;;;3.90;0.65;;;27.40;93.20;;;;;;5057494;28;20132;-80
2022/09/14 12:20:41;;;;;;;3.45;0.52;;;27.20;93.20;;;;;;5068981;28;20053;-79
2022/09/14 12:23:30;;;;;;;5.95;0.77;;;26.60;93.10;;;;;;5062567;28;20567;-80
2022/09/14 12:26:05;;;;;;;2.83;0.60;;;26.10;94.00;;;;;;5067486;28;20057;-79
2022/09/14 12:28:34;;;;;;;4.72;0.98;;;25.60;94.20;;;;;;5055733;28;20483;-79
2022/09/14 12:31:01;;;;;;;4.53;0.88;;;25.40;94.40;;;;;;5073460;28;20050;-79
2022/09/14 12:33:30;;;;;;;5.93;0.60;;;25.70;93.90;;;;;;5066539;28;20035;-79
2022/09/14 12:36:25;;;;;;;6.32;0.75;;;25.60;94.10;;;;;;5062433;28;20030;-80
2022/09/14 12:38:51;;;;;;;3.95;0.68;;;25.40;94.00;;;;;;5003259;28;20051;-80
2022/09/14 12:41:17;;;;;;;8.07;1.00;;;25.30;94.50;;;;;;5060661;28;20038;-79
2022/09/14 12:43:49;;;;;;;4.80;0.88;;;24.90;94.00;;;;;;5067419;28;20125;-80
2022/09/14 12:46:21;;;;;;;4.50;0.73;;;24.80;94.00;;;;;;5062519;28;20574;-80
2022/09/14 12:48:51;;;;;;;4.60;0.68;;;24.70;94.30;;;;;;5073641;28;20108;-80
2022/09/14 12:51:26;;;;;;;3.22;0.70;;;24.60;94.60;;;;;;5083406;28;20038;-82
2022/09/14 12:54:00;;;;;;;3.92;0.60;;;24.80;95.00;;;;;;5071781;28;20046;-82
2022/09/14 12:56:33;;;;;;;4.00;0.80;;;25.00;94.60;;;;;;5047063;28;20040;-81
2022/09/14 12:59:11;;;;;;;6.97;0.80;;;25.30;94.00;;;;;;5076859;28;20047;-81
2022/09/14 13:01:55;;;;;;;3.92;0.75;;;25.30;94.70;;;;;;5067010;28;20079;-82
2022/09/14 13:04:27;;;;;;;6.45;0.90;;;25.40;94.40;;;;;;5071180;28;20042;-81
2022/09/14 13:06:55;;;;;;;4.25;0.85;;;25.20;95.00;;;;;;5069594;28;20430;-81
2022/09/14 13:09:24;;;;;;;4.78;1.02;;;25.00;94.80;;;;;;5067257;28;20041;-81
2022/09/14 13:12:08;;;;;;;5.82;0.73;;;24.70;95.10;;;;;;5047561;28;20704;-81
2022/09/14 13:14:51;;;;;;;4.78;1.27;;;24.70;94.80;;;;;;5067055;28;20038;-81
2022/09/14 13:17:17;;;;;;;5.82;0.63;;;24.70;95.10;;;;;;5061939;28;20035;-81